MDT,Max TemperatureF,Mean TemperatureF,Min TemperatureF,Max Dew PointF,MeanDew PointF,Min DewpointF,Max Humidity, Mean Humidity, Min Humidity, Max Sea Level PressureIn, Mean Sea Level PressureIn, Min Sea Level PressureIn, Max VisibilityMiles, Mean VisibilityMiles, Min VisibilityMiles, Max Wind SpeedMPH, Mean Wind SpeedMPH, Max Gust SpeedMPH,PrecipitationIn, CloudCover, Events, WindDirDegrees
2012-10-1,73,55,37,36,31,27,72,45,19,30.52,30.42,30.32,10,10,10,21,6,28,0.00,1,,169
2012-10-2,77,56,34,34,28,20,85,42,12,30.39,30.27,30.15,10,10,10,13,5,22,0.00,0,,279
2012-10-3,75,58,40,25,18,11,52,22,9,30.27,30.20,30.13,10,10,7,25,7,40,0.00,0,,284
2012-10-4,74,54,35,32,28,16,81,49,13,30.40,30.31,30.19,10,10,10,28,14,34,0.00,2,,134
2012-10-5,68,50,32,31,24,9,83,53,10,30.31,30.21,30.12,10,10,7,33,11,47,0.00,1,,175
2012-10-6,48,40,32,31,28,26,90,71,42,30.29,30.23,30.14,10,10,10,32,12,39,0.00,4,,122
2012-10-7,62,44,26,27,16,0,86,48,9,30.29,30.21,30.12,10,10,7,21,6,28,0.00,2,,161
2012-10-8,66,48,31,16,2,-9,50,19,5,30.25,30.18,30.10,10,10,7,24,7,36,0.00,0,,264
2012-10-9,70,54,39,33,15,0,78,26,10,30.31,30.17,30.12,10,10,10,22,8,37,0.00,0,,250
2012-10-10,71,52,32,33,26,20,89,48,14,30.34,30.27,30.17,10,10,5,25,7,33,0.00,0,,256
2012-10-11,73,56,40,36,26,21,54,35,14,30.38,30.28,30.22,10,10,10,23,7,32,0.00,2,,152
2012-10-12,57,47,37,47,40,32,90,77,55,30.39,30.26,30.10,10,10,3,15,6,24,0.00,4,,142
2012-10-13,57,48,40,33,29,24,69,51,33,30.35,30.17,30.09,10,10,7,23,11,32,0.00,3,,259
2012-10-14,65,50,36,35,31,26,81,49,24,30.48,30.41,30.35,10,10,10,17,7,23,0.00,1,,262
2012-10-15,70,54,38,30,22,11,63,34,10,30.41,30.28,30.17,10,10,10,25,12,36,0.00,0,,285
2012-10-16,70,58,45,29,23,17,43,26,13,30.19,30.03,29.87,10,10,10,29,12,43,0.00,1,,258
2012-10-17,61,53,45,41,5,-6,81,19,7,30.14,30.02,29.87,10,10,10,36,16,45,0.00,1,,266
2012-10-18,66,56,45,14,8,0,23,16,11,30.29,30.20,30.14,10,10,10,25,14,43,0.00,0,,306
2012-10-19,71,52,34,19,12,1,46,23,8,30.30,30.21,30.10,10,10,10,29,10,39,0.00,0,,286
2012-10-20,72,56,39,15,11,4,34,18,7,30.15,30.07,29.97,10,10,10,23,7,37,0.00,0,,257
2012-10-21,69,53,37,24,16,8,34,23,15,30.11,30.06,30.01,10,10,10,17,7,24,0.00,0,,212
2012-10-22,66,52,38,26,23,16,55,32,16,30.12,30.06,29.97,10,10,10,23,9,32,0.00,0,,221
2012-10-23,70,60,49,26,21,11,40,25,11,30.07,30.02,29.95,10,10,10,21,12,34,0.00,1,,217
2012-10-24,69,54,38,31,20,13,65,31,12,30.05,29.96,29.77,10,10,10,28,11,44,0.00,3,,211
2012-10-25,45,36,28,24,13,2,81,41,17,30.28,30.16,30.05,10,10,3,26,13,40,0.00,1,,243
2012-10-26,45,32,18,26,11,-13,95,54,9,30.47,30.34,30.24,10,10,2,15,5,22,0.00,0,,207
2012-10-27,54,38,23,22,10,5,87,34,15,30.27,30.19,30.12,10,10,7,30,14,39,0.00,0,,240
2012-10-28,63,45,27,22,18,13,61,34,19,30.32,30.24,30.18,10,10,10,21,7,30,0.00,0,,242
2012-10-29,64,48,32,25,22,21,63,40,20,30.39,30.33,30.27,10,10,10,18,5,29,0.00,0,,301
2012-10-30,67,49,31,23,19,12,64,36,12,30.42,30.34,30.25,10,10,10,12,5,20,0.00,0,,249
2012-10-31,67,48,30,21,15,7,62,33,9,30.43,30.36,30.27,10,10,10,10,3,17,0.00,0,,258